Time;durP1;ratioP1;P1;durP2;ratioP2;P2;SDS_P1;SDS_P2;PMS_P1;PMS_P2;Temp;Humidity;BMP_temperature;BMP_pressure;BME280_temperature;BME280_humidity;BME280_pressure;Samples;Min_cycle;Max_cycle;Signal;HPM_P1;HPM_P2
2022/04/06 00:00:26;;;;;;;42.72;25.88;;;5.40;78.00;;;;;;5095982;28;20445;-12
2022/04/06 00:02:53;;;;;;;40.60;23.95;;;5.40;77.70;;;;;;5096397;28;20058;-13
2022/04/06 00:05:19;;;;;;;39.28;23.33;;;5.40;77.60;;;;;;5096494;28;20038;-13
2022/04/06 00:07:45;;;;;;;58.30;34.15;;;5.40;77.50;;;;;;5096043;28;20116;-12
2022/04/06 00:10:12;;;;;;;55.63;32.13;;;5.40;78.20;;;;;;5096041;28;20111;-12
2022/04/06 00:12:39;;;;;;;57.67;33.08;;;5.40;78.50;;;;;;5096217;28;20440;-11
2022/04/06 00:15:08;;;;;;;53.35;32.28;;;5.30;78.40;;;;;;5094850;28;20028;-13
2022/04/06 00:17:34;;;;;;;50.72;30.85;;;5.30;78.50;;;;;;5095764;28;20379;-12
2022/04/06 00:19:59;;;;;;;50.08;28.65;;;5.30;78.10;;;;;;5096388;28;20035;-12
2022/04/06 00:22:26;;;;;;;48.80;29.70;;;5.30;77.80;;;;;;5095552;28;20390;-12
2022/04/06 00:24:52;;;;;;;49.42;29.45;;;5.30;78.00;;;;;;5096336;28;20024;-12
2022/04/06 00:27:19;;;;;;;57.28;34.55;;;5.30;77.90;;;;;;5095711;28;20028;-12
2022/04/06 00:29:44;;;;;;;42.17;26.27;;;5.30;78.40;;;;;;5096557;28;20028;-12
2022/04/06 00:32:11;;;;;;;48.58;29.15;;;5.30;77.90;;;;;;5095550;28;20043;-13
2022/04/06 00:37:22;;;;;;;48.53;29.02;;;5.40;77.60;;;;;;5095704;28;20102;-12
2022/04/06 00:39:48;;;;;;;48.72;26.80;;;5.30;77.90;;;;;;5096000;28;20476;-12
2022/04/06 00:42:13;;;;;;;60.35;34.70;;;5.40;78.10;;;;;;5095333;28;20128;-11
2022/04/06 00:44:40;;;;;;;69.10;37.22;;;5.30;78.20;;;;;;5095374;28;20032;-12
2022/04/06 00:47:06;;;;;;;61.50;35.30;;;5.30;77.90;;;;;;5095663;28;20020;-12
2022/04/06 00:49:33;;;;;;;55.95;30.98;;;5.20;77.70;;;;;;5095291;28;20032;-13
2022/04/06 00:52:04;;;;;;;55.55;31.77;;;5.10;77.90;;;;;;5095880;28;20024;-13
2022/04/06 00:54:31;;;;;;;49.28;28.63;;;5.10;78.00;;;;;;5095017;28;20073;-12
2022/04/06 00:56:58;;;;;;;61.00;34.45;;;5.10;78.00;;;;;;5095394;28;20031;-12
2022/04/06 00:59:26;;;;;;;58.65;33.33;;;5.10;78.50;;;;;;5095311;28;20032;-12
2022/04/06 01:01:53;;;;;;;61.25;34.67;;;5.00;78.60;;;;;;5094962;28;20123;-12
2022/04/06 01:04:19;;;;;;;46.05;28.92;;;5.00;78.90;;;;;;5094891;28;20032;-12
2022/04/06 01:06:47;;;;;;;41.90;25.13;;;5.00;78.80;;;;;;5094958;28;20085;-13
2022/04/06 01:09:17;;;;;;;48.75;28.38;;;4.90;78.50;;;;;;5094914;28;20032;-13
2022/04/06 01:11:47;;;;;;;63.13;37.30;;;4.90;78.50;;;;;;5095157;28;20028;-13
2022/04/06 01:14:13;;;;;;;63.30;36.63;;;4.90;79.10;;;;;;5095083;28;20195;-13
2022/04/06 01:16:40;;;;;;;64.00;38.08;;;4.90;79.60;;;;;;5093842;28;20031;-12
2022/04/06 01:19:06;;;;;;;73.93;41.03;;;4.80;79.50;;;;;;5094917;28;20028;-13
2022/04/06 01:21:33;;;;;;;57.20;33.58;;;4.80;79.90;;;;;;5095043;28;20039;-13
2022/04/06 01:23:58;;;;;;;52.20;31.20;;;4.80;79.60;;;;;;5094616;28;20017;-13
2022/04/06 01:26:25;;;;;;;66.75;37.35;;;4.70;79.20;;;;;;5094401;28;20081;-12
2022/04/06 01:28:51;;;;;;;61.35;37.25;;;4.70;79.30;;;;;;5093959;28;20051;-12
2022/04/06 01:31:17;;;;;;;62.60;35.88;;;4.70;79.60;;;;;;5094467;28;20028;-12
2022/04/06 01:33:44;;;;;;;62.05;35.92;;;4.60;79.70;;;;;;5094331;28;20036;-12
2022/04/06 01:36:10;;;;;;;49.92;29.35;;;4.70;80.10;;;;;;5094666;28;20024;-12
2022/04/06 01:38:36;;;;;;;64.25;35.90;;;4.70;79.50;;;;;;5094332;28;20024;-12
2022/04/06 01:41:03;;;;;;;58.53;32.72;;;4.60;79.50;;;;;;5094266;28;20103;-12
2022/04/06 01:43:28;;;;;;;59.63;34.78;;;4.60;79.80;;;;;;5094229;28;20065;-13
2022/04/06 01:45:55;;;;;;;52.55;31.42;;;4.60;80.00;;;;;;5094553;28;20105;-13
2022/04/06 01:48:20;;;;;;;62.63;35.55;;;4.60;80.10;;;;;;5093853;28;20031;-14
2022/04/06 01:53:31;;;;;;;54.40;31.13;;;4.50;80.20;;;;;;5094221;28;20051;-12
2022/04/06 01:55:58;;;;;;;65.38;34.53;;;4.50;79.70;;;;;;5094000;28;20052;-13
2022/04/06 01:58:24;;;;;;;48.40;28.00;;;4.50;79.40;;;;;;5093798;28;20062;-13
2022/04/06 02:00:52;;;;;;;64.57;34.40;;;4.40;79.50;;;;;;5093816;28;20036;-12
2022/04/06 02:03:18;;;;;;;54.50;32.78;;;4.40;79.50;;;;;;5093931;28;20051;-12
2022/04/06 02:05:43;;;;;;;58.10;32.58;;;4.40;79.70;;;;;;5092763;28;20093;-13
2022/04/06 02:08:10;;;;;;;55.47;31.17;;;4.40;79.70;;;;;;5093919;28;20158;-13
2022/04/06 02:10:38;;;;;;;54.63;31.27;;;4.40;79.80;;;;;;5093874;28;20028;-13
2022/04/06 02:13:04;;;;;;;45.78;27.75;;;4.40;79.70;;;;;;5094039;28;20103;-12
2022/04/06 02:15:30;;;;;;;49.40;30.17;;;4.40;79.70;;;;;;5094013;28;20031;-13
2022/04/06 02:17:56;;;;;;;41.05;23.75;;;4.40;80.10;;;;;;5092292;28;20020;-13
2022/04/06 02:20:22;;;;;;;45.58;27.17;;;4.40;79.40;;;;;;5092375;28;20058;-13
2022/04/06 02:22:49;;;;;;;43.63;26.02;;;4.40;79.40;;;;;;5093821;28;20028;-13
2022/04/06 02:25:16;;;;;;;45.95;27.23;;;4.40;79.40;;;;;;5093559;28;20035;-14
2022/04/06 02:27:50;;;;;;;45.28;26.52;;;4.40;79.50;;;;;;5093785;28;20023;-12
2022/04/06 02:30:17;;;;;;;44.42;24.77;;;4.40;79.80;;;;;;5093562;28;20066;-12
2022/04/06 02:32:43;;;;;;;36.17;20.30;;;4.30;79.80;;;;;;5093510;28;20451;-12
2022/04/06 02:35:10;;;;;;;40.25;21.83;;;4.30;79.50;;;;;;5093800;28;20048;-12
2022/04/06 02:37:37;;;;;;;50.83;29.77;;;4.20;79.50;;;;;;5093503;28;20545;-13
2022/04/06 02:40:04;;;;;;;49.47;28.10;;;4.30;79.60;;;;;;5093305;28;20016;-13
2022/04/06 02:42:31;;;;;;;48.58;27.73;;;4.20;79.80;;;;;;5093052;28;20058;-13
2022/04/06 02:44:57;;;;;;;64.55;35.75;;;4.20;79.70;;;;;;5093348;28;20484;-13
2022/04/06 02:47:22;;;;;;;60.30;33.47;;;4.30;80.00;;;;;;5093439;28;20034;-13
2022/04/06 02:49:48;;;;;;;62.75;35.78;;;4.20;80.10;;;;;;5093518;28;20024;-12
2022/04/06 02:52:14;;;;;;;59.40;34.85;;;4.20;80.30;;;;;;5091851;28;20020;-14
2022/04/06 02:54:40;;;;;;;55.28;32.83;;;4.10;80.70;;;;;;5093467;28;20096;-12
2022/04/06 02:57:06;;;;;;;50.30;29.42;;;4.10;80.80;;;;;;5093107;28;20472;-13
2022/04/06 02:59:32;;;;;;;50.22;28.70;;;4.10;80.90;;;;;;5093341;28;20162;-12
2022/04/06 03:01:58;;;;;;;84.78;42.03;;;4.10;80.70;;;;;;5093552;28;20043;-12
2022/04/06 03:04:24;;;;;;;57.20;32.53;;;4.10;81.10;;;;;;5093181;28;20024;-13
2022/04/06 03:06:50;;;;;;;47.28;26.52;;;4.10;80.90;;;;;;5093035;28;20115;-12
2022/04/06 03:09:16;;;;;;;58.22;33.08;;;4.10;80.60;;;;;;5093030;28;20030;-12
2022/04/06 03:11:43;;;;;;;57.88;33.97;;;4.10;80.50;;;;;;5092430;28;20103;-12
2022/04/06 03:14:09;;;;;;;47.15;27.88;;;4.20;80.90;;;;;;5093292;28;20020;-12
2022/04/06 03:16:36;;;;;;;53.65;30.25;;;4.20;81.20;;;;;;5093339;28;20066;-12
2022/04/06 03:19:02;;;;;;;60.28;34.13;;;4.30;80.90;;;;;;5092844;28;20050;-13
2022/04/06 03:21:28;;;;;;;68.50;36.45;;;4.30;80.40;;;;;;5093535;28;20032;-12
2022/04/06 03:23:53;;;;;;;65.97;35.97;;;4.40;80.50;;;;;;5093757;28;20016;-13
2022/04/06 03:26:19;;;;;;;55.33;30.95;;;4.40;80.60;;;;;;5092635;28;20432;-12
2022/04/06 03:28:45;;;;;;;61.28;31.70;;;4.40;80.40;;;;;;5093142;28;20020;-13
2022/04/06 03:31:11;;;;;;;60.30;34.75;;;4.40;80.70;;;;;;5092832;28;20055;-12
2022/04/06 03:33:37;;;;;;;52.85;31.02;;;4.50;80.90;;;;;;5092790;28;20020;-13
2022/04/06 03:36:03;;;;;;;47.53;28.23;;;4.50;81.00;;;;;;5092682;28;20028;-12
2022/04/06 03:38:30;;;;;;;47.22;28.15;;;4.60;81.00;;;;;;5092477;28;20043;-13
2022/04/06 03:40:55;;;;;;;50.70;29.77;;;4.60;80.80;;;;;;5093021;28;20016;-13
2022/04/06 03:43:24;;;;;;;53.75;31.27;;;4.60;80.80;;;;;;5092922;28;20384;-13
2022/04/06 03:45:50;;;;;;;42.58;25.48;;;4.60;80.60;;;;;;5092937;28;20408;-13
2022/04/06 03:48:16;;;;;;;47.38;28.25;;;4.60;80.50;;;;;;5092496;28;20024;-12
2022/04/06 03:50:42;;;;;;;43.45;26.75;;;4.60;80.50;;;;;;5092915;28;20115;-13
2022/04/06 03:53:08;;;;;;;43.78;26.38;;;4.70;80.60;;;;;;5096231;28;20055;-13
2022/04/06 03:55:35;;;;;;;48.55;28.70;;;4.70;80.30;;;;;;5096643;28;20036;-13
2022/04/06 03:58:01;;;;;;;46.08;27.38;;;4.70;80.50;;;;;;5096461;28;20027;-12
2022/04/06 04:00:27;;;;;;;46.28;25.67;;;4.70;80.60;;;;;;5095997;28;20032;-13
2022/04/06 04:02:53;;;;;;;48.53;28.45;;;4.70;80.20;;;;;;5096466;28;20055;-13
2022/04/06 04:05:20;;;;;;;59.63;33.60;;;4.80;80.20;;;;;;5096190;28;20448;-13
2022/04/06 04:07:46;;;;;;;54.95;30.92;;;4.80;80.60;;;;;;5096436;28;20032;-13
2022/04/06 04:10:12;;;;;;;61.97;33.85;;;4.80;80.10;;;;;;5096214;28;20046;-14
2022/04/06 04:12:39;;;;;;;69.45;36.67;;;4.80;80.10;;;;;;5095829;28;20395;-12
2022/04/06 04:15:06;;;;;;;55.03;31.65;;;4.80;80.00;;;;;;5096296;28;20036;-13
2022/04/06 04:17:32;;;;;;;65.15;35.90;;;4.80;80.20;;;;;;5096088;28;20085;-13
2022/04/06 04:19:57;;;;;;;59.95;31.63;;;4.80;80.50;;;;;;5095855;28;20039;-13
2022/04/06 04:22:24;;;;;;;56.58;30.98;;;4.80;80.60;;;;;;5095749;28;20059;-12
2022/04/06 04:24:50;;;;;;;49.35;29.48;;;4.80;80.60;;;;;;5096117;28;20093;-14
2022/04/06 04:27:16;;;;;;;49.15;28.27;;;4.80;80.40;;;;;;5096044;28;20460;-12
2022/04/06 04:29:42;;;;;;;52.17;27.60;;;4.80;80.30;;;;;;5095793;28;20024;-12
2022/04/06 04:32:10;;;;;;;58.38;31.77;;;4.80;80.30;;;;;;5095876;28;20024;-12
2022/04/06 04:34:37;;;;;;;63.17;35.22;;;4.90;80.40;;;;;;5095525;28;20016;-12
2022/04/06 04:37:03;;;;;;;56.22;30.35;;;4.80;80.40;;;;;;5096488;28;20035;-12
2022/04/06 04:39:29;;;;;;;63.90;33.92;;;4.80;80.60;;;;;;5096132;28;20028;-13
2022/04/06 04:41:55;;;;;;;65.20;36.28;;;4.80;80.50;;;;;;5095582;28;20499;-12
2022/04/06 04:44:21;;;;;;;67.68;36.33;;;4.70;80.50;;;;;;5095341;28;20547;-13
2022/04/06 04:46:47;;;;;;;68.60;35.85;;;4.70;80.60;;;;;;5095465;28;20038;-12
2022/04/06 04:49:13;;;;;;;58.70;32.42;;;4.70;80.70;;;;;;5095610;28;20028;-13
2022/04/06 04:51:39;;;;;;;62.35;33.95;;;4.70;80.90;;;;;;5095579;28;20032;-12
2022/04/06 04:54:04;;;;;;;74.07;40.72;;;4.70;80.90;;;;;;5095133;28;20484;-13
2022/04/06 04:56:32;;;;;;;77.28;38.78;;;4.80;80.90;;;;;;5095085;28;20539;-12
2022/04/06 04:58:59;;;;;;;67.68;36.25;;;4.80;81.00;;;;;;5095364;28;20047;-13
2022/04/06 05:01:26;;;;;;;57.58;31.38;;;4.80;81.00;;;;;;5095589;28;20547;-13
2022/04/06 05:03:52;;;;;;;48.92;28.23;;;4.80;81.10;;;;;;5094863;28;20059;-12
2022/04/06 05:06:18;;;;;;;50.92;27.48;;;4.80;81.30;;;;;;5095070;28;20098;-13
2022/04/06 05:08:44;;;;;;;49.15;27.27;;;4.80;81.00;;;;;;5095033;28;20494;-13
2022/04/06 05:11:10;;;;;;;56.35;30.48;;;4.80;80.90;;;;;;5095010;28;20023;-12
2022/04/06 05:13:37;;;;;;;69.20;35.75;;;4.90;81.00;;;;;;5095071;28;20469;-13
2022/04/06 05:16:04;;;;;;;60.95;33.97;;;4.90;81.30;;;;;;5094788;28;20035;-13
2022/04/06 05:18:29;;;;;;;73.78;38.05;;;4.90;81.10;;;;;;5094677;28;20031;-12
2022/04/06 05:20:56;;;;;;;67.72;36.72;;;4.90;80.90;;;;;;5095502;28;20032;-12
2022/04/06 05:23:22;;;;;;;73.10;37.05;;;4.90;81.10;;;;;;5094944;28;20047;-13
2022/04/06 05:25:48;;;;;;;75.25;37.97;;;4.90;81.10;;;;;;5094889;28;20035;-13
2022/04/06 05:28:18;;;;;;;68.32;36.00;;;4.90;81.30;;;;;;5094640;28;20020;-14
2022/04/06 05:30:46;;;;;;;59.22;32.78;;;5.00;81.60;;;;;;5094512;28;20028;-13
2022/04/06 05:33:12;;;;;;;69.90;36.53;;;5.20;81.70;;;;;;5094686;28;20107;-13
2022/04/06 05:35:38;;;;;;;66.03;35.45;;;5.30;81.50;;;;;;5094370;28;20111;-13
2022/04/06 05:38:04;;;;;;;53.20;29.60;;;5.40;81.70;;;;;;5094621;28;20143;-13
2022/04/06 05:40:30;;;;;;;62.65;33.00;;;5.60;81.40;;;;;;5094661;28;20047;-13
2022/04/06 05:42:56;;;;;;;56.17;30.40;;;5.70;81.50;;;;;;5094257;28;20028;-13
2022/04/06 05:45:21;;;;;;;55.00;30.40;;;5.90;81.50;;;;;;5094556;28;20028;-12
2022/04/06 05:47:47;;;;;;;59.22;33.25;;;6.00;81.20;;;;;;5094572;28;20020;-12
2022/04/06 05:50:14;;;;;;;61.35;32.42;;;6.20;81.00;;;;;;5094284;28;20021;-13
2022/04/06 05:52:40;;;;;;;69.60;37.67;;;6.40;80.80;;;;;;5093781;28;20561;-12
2022/04/06 05:55:06;;;;;;;70.32;38.55;;;6.60;80.60;;;;;;5092946;28;20075;-13
2022/04/06 05:57:32;;;;;;;56.05;31.77;;;6.80;80.50;;;;;;5093950;28;20028;-13
2022/04/06 06:00:00;;;;;;;71.82;40.45;;;6.90;80.50;;;;;;5094268;28;20048;-12
2022/04/06 06:02:26;;;;;;;59.22;31.92;;;7.10;80.50;;;;;;5093937;28;20418;-12
2022/04/06 06:04:54;;;;;;;56.78;32.50;;;7.30;80.30;;;;;;5094545;28;20031;-13
2022/04/06 06:07:20;;;;;;;64.38;36.85;;;7.60;80.20;;;;;;5094134;28;20042;-12
2022/04/06 06:09:47;;;;;;;59.97;35.70;;;7.80;80.10;;;;;;5094094;28;20020;-12
2022/04/06 06:12:14;;;;;;;58.70;35.25;;;8.00;79.60;;;;;;5093744;28;20032;-13
2022/04/06 06:14:40;;;;;;;83.07;45.28;;;8.30;79.40;;;;;;5093252;28;20024;-12
2022/04/06 06:17:05;;;;;;;72.95;41.95;;;8.40;79.30;;;;;;5093655;28;20024;-13
2022/04/06 06:19:31;;;;;;;67.35;38.25;;;8.60;78.80;;;;;;5093807;28;20032;-13
2022/04/06 06:21:57;;;;;;;72.63;41.75;;;8.80;78.50;;;;;;5093891;28;20492;-13
2022/04/06 06:24:24;;;;;;;66.28;39.58;;;9.10;78.50;;;;;;5093693;28;20384;-13
2022/04/06 06:26:51;;;;;;;88.50;53.45;;;9.30;78.10;;;;;;5093549;28;20035;-13
2022/04/06 06:29:16;;;;;;;70.65;39.90;;;9.40;77.90;;;;;;5093474;28;20030;-13
2022/04/06 06:31:43;;;;;;;65.63;38.20;;;9.60;77.60;;;;;;5093742;28;20028;-12
2022/04/06 06:34:09;;;;;;;68.65;38.38;;;9.80;77.10;;;;;;5093664;28;20024;-12
2022/04/06 06:36:35;;;;;;;83.10;45.92;;;10.00;76.80;;;;;;5093786;28;20028;-12
2022/04/06 06:39:01;;;;;;;72.45;42.53;;;10.10;76.60;;;;;;5093588;28;20074;-13
2022/04/06 06:41:27;;;;;;;79.45;44.63;;;10.10;76.40;;;;;;5093627;28;20028;-12
2022/04/06 06:43:56;;;;;;;74.50;41.50;;;10.20;76.70;;;;;;5093254;28;20061;-13
2022/04/06 06:46:22;;;;;;;71.50;40.45;;;10.30;76.50;;;;;;5093377;28;20097;-12
2022/04/06 06:48:50;;;;;;;75.53;41.65;;;10.50;76.90;;;;;;5093439;28;20103;-13
2022/04/06 06:51:17;;;;;;;66.40;36.55;;;10.70;76.60;;;;;;5093460;28;20028;-12
2022/04/06 06:53:43;;;;;;;66.72;38.53;;;10.90;76.30;;;;;;5092929;28;20397;-12
2022/04/06 06:56:09;;;;;;;62.47;37.10;;;11.30;75.90;;;;;;5093393;28;20035;-12
2022/04/06 06:58:35;;;;;;;72.70;41.72;;;11.50;75.80;;;;;;5093199;28;20384;-12
2022/04/06 07:01:01;;;;;;;58.35;34.15;;;11.80;75.80;;;;;;5093380;28;20024;-12
2022/04/06 07:03:27;;;;;;;58.17;34.50;;;12.00;74.60;;;;;;5092980;28;20123;-12
2022/04/06 07:05:53;;;;;;;57.47;33.88;;;12.20;74.30;;;;;;5093078;28;20536;-12
2022/04/06 07:08:20;;;;;;;55.72;33.42;;;12.50;73.60;;;;;;5092834;28;20069;-12
2022/04/06 07:10:47;;;;;;;60.38;35.95;;;12.70;73.60;;;;;;5092919;28;20028;-12
2022/04/06 07:13:16;;;;;;;47.80;28.35;;;12.90;74.00;;;;;;5093349;28;20020;-12
2022/04/06 07:15:44;;;;;;;52.97;33.08;;;13.00;72.70;;;;;;5092923;28;20538;-12
2022/04/06 07:18:12;;;;;;;50.70;32.03;;;13.10;73.00;;;;;;5093092;28;20032;-12
2022/04/06 07:20:39;;;;;;;52.45;31.85;;;13.30;73.00;;;;;;5093196;28;20066;-12
2022/04/06 07:23:07;;;;;;;49.38;30.25;;;13.40;72.40;;;;;;5092884;28;20387;-11
2022/04/06 07:25:34;;;;;;;45.90;29.17;;;13.60;71.80;;;;;;5093196;28;20376;-12
2022/04/06 07:28:01;;;;;;;45.10;28.42;;;13.60;71.40;;;;;;5097270;28;20023;-12
2022/04/06 07:30:27;;;;;;;44.08;27.65;;;13.70;71.60;;;;;;5096602;28;20034;-11
2022/04/06 07:32:54;;;;;;;44.85;28.58;;;13.80;71.70;;;;;;5097316;28;20418;-12
2022/04/06 07:35:20;;;;;;;45.35;28.52;;;13.90;70.80;;;;;;5096722;28;20407;-12
2022/04/06 07:37:48;;;;;;;38.60;24.27;;;14.00;70.90;;;;;;5096610;28;20032;-13
2022/04/06 07:40:15;;;;;;;45.17;27.80;;;14.10;70.80;;;;;;5097159;28;20032;-14
2022/04/06 07:42:42;;;;;;;46.15;29.92;;;14.30;70.90;;;;;;5095313;28;20083;-11
2022/04/06 07:45:13;;;;;;;40.85;25.88;;;14.40;70.10;;;;;;5095375;28;20055;-13
2022/04/06 07:47:41;;;;;;;42.25;27.08;;;14.60;70.10;;;;;;5096521;28;20483;-12
2022/04/06 07:50:08;;;;;;;42.25;26.80;;;14.70;68.30;;;;;;5096523;28;20480;-11
2022/04/06 07:52:36;;;;;;;42.85;27.70;;;14.80;68.40;;;;;;5096066;28;20021;-11
2022/04/06 07:55:04;;;;;;;42.42;28.10;;;14.80;68.30;;;;;;5097018;28;20020;-12
2022/04/06 07:57:30;;;;;;;42.20;27.45;;;14.80;68.50;;;;;;5096625;28;20024;-13
2022/04/06 07:59:57;;;;;;;42.85;27.75;;;14.80;68.20;;;;;;5096421;28;20031;-12
2022/04/06 08:02:23;;;;;;;42.05;26.48;;;14.90;68.50;;;;;;5096040;28;20028;-11
2022/04/06 08:04:50;;;;;;;38.50;25.92;;;14.90;68.00;;;;;;5096273;28;20109;-11
2022/04/06 08:07:16;;;;;;;44.38;28.23;;;15.00;68.30;;;;;;5096444;28;20036;-12
2022/04/06 08:09:43;;;;;;;40.05;26.60;;;15.20;67.60;;;;;;5096111;28;20204;-12
2022/04/06 08:12:09;;;;;;;36.65;24.13;;;15.40;67.10;;;;;;5096131;28;20020;-12
2022/04/06 08:14:35;;;;;;;39.85;26.63;;;15.50;66.50;;;;;;5094582;28;20020;-12
2022/04/06 08:17:01;;;;;;;42.95;28.08;;;15.70;65.80;;;;;;5096179;28;20024;-12
2022/04/06 08:19:28;;;;;;;41.83;28.02;;;15.90;64.40;;;;;;5096175;28;20077;-12
2022/04/06 08:21:54;;;;;;;38.80;26.15;;;16.00;64.00;;;;;;5095881;28;20036;-11
2022/04/06 08:24:20;;;;;;;38.53;26.38;;;16.10;64.20;;;;;;5095771;28;20024;-12
2022/04/06 08:26:46;;;;;;;42.80;27.73;;;16.30;63.90;;;;;;5096422;28;20082;-13
2022/04/06 08:29:12;;;;;;;41.95;27.48;;;16.30;61.30;;;;;;5095816;28;20036;-12
2022/04/06 08:31:39;;;;;;;31.90;23.08;;;16.40;61.20;;;;;;5095644;28;20025;-13
2022/04/06 08:34:10;;;;;;;34.10;23.50;;;16.40;62.20;;;;;;5095574;28;20028;-12
2022/04/06 08:36:36;;;;;;;38.38;26.98;;;16.40;61.70;;;;;;5094932;28;20056;-13
2022/04/06 08:39:02;;;;;;;33.75;23.52;;;16.50;61.50;;;;;;5096118;28;20067;-12
2022/04/06 08:41:30;;;;;;;34.33;23.42;;;16.60;61.70;;;;;;5095852;28;20131;-13
2022/04/06 08:43:59;;;;;;;28.92;21.73;;;16.80;59.60;;;;;;5095465;28;20070;-13
2022/04/06 08:46:32;;;;;;;33.92;23.30;;;16.90;59.30;;;;;;5095537;28;20047;-12
2022/04/06 08:48:59;;;;;;;32.42;22.00;;;17.10;58.50;;;;;;5095355;28;20058;-12
2022/04/06 08:51:29;;;;;;;34.55;24.80;;;17.20;56.60;;;;;;5095611;28;20024;-11
2022/04/06 08:53:55;;;;;;;35.47;24.13;;;17.30;55.70;;;;;;5093841;28;20044;-11
2022/04/06 08:56:24;;;;;;;30.65;22.33;;;17.40;55.50;;;;;;5095085;28;20131;-12
2022/04/06 08:58:50;;;;;;;34.20;24.83;;;17.50;56.10;;;;;;5095109;28;20032;-11
2022/04/06 09:01:16;;;;;;;34.38;25.73;;;17.70;56.10;;;;;;5095098;28;20024;-12
2022/04/06 09:03:42;;;;;;;36.20;24.80;;;17.80;56.00;;;;;;5095267;28;20047;-11
2022/04/06 09:06:10;;;;;;;32.20;23.77;;;17.90;55.50;;;;;;5095307;28;20464;-12
2022/04/06 09:08:39;;;;;;;33.33;24.52;;;18.10;55.10;;;;;;5094762;28;20024;-12
2022/04/06 09:11:11;;;;;;;31.83;24.15;;;18.20;54.50;;;;;;5095183;28;20024;-10
2022/04/06 09:13:38;;;;;;;42.30;30.15;;;18.40;54.80;;;;;;5094927;28;20024;-11
2022/04/06 09:16:07;;;;;;;40.90;29.50;;;18.40;52.40;;;;;;5094987;28;20034;-11
2022/04/06 09:18:38;;;;;;;37.67;28.00;;;18.50;51.50;;;;;;5094688;28;20028;-12
2022/04/06 09:21:05;;;;;;;41.85;30.67;;;18.50;51.70;;;;;;5095081;28;20028;-11
2022/04/06 09:23:32;;;;;;;34.13;23.88;;;18.50;51.90;;;;;;5094940;28;20121;-12
2022/04/06 09:26:03;;;;;;;45.28;32.15;;;18.60;52.60;;;;;;5094866;28;20031;-13
2022/04/06 09:28:29;;;;;;;45.65;31.35;;;18.90;50.20;;;;;;5094742;28;20016;-12
2022/04/06 09:30:55;;;;;;;40.70;29.27;;;18.90;51.00;;;;;;5094794;28;20134;-11
2022/04/06 09:33:21;;;;;;;34.00;25.40;;;19.10;50.50;;;;;;5093158;28;20089;-12
2022/04/06 09:35:49;;;;;;;41.00;29.63;;;19.30;50.60;;;;;;5093626;28;20028;-12
2022/04/06 09:38:23;;;;;;;45.33;34.05;;;19.40;50.60;;;;;;5094509;28;20020;-12
2022/04/06 09:41:03;;;;;;;42.47;30.27;;;19.50;48.70;;;;;;5094730;28;20046;-12
2022/04/06 09:43:32;;;;;;;41.75;28.55;;;19.50;48.70;;;;;;5094640;28;20028;-13
2022/04/06 09:49:01;;;;;;;38.78;28.77;;;19.80;47.20;;;;;;5093710;28;20038;-12
2022/04/06 09:51:27;;;;;;;40.53;30.33;;;19.90;46.90;;;;;;5094465;28;20032;-12
2022/04/06 09:53:54;;;;;;;36.67;27.23;;;19.90;46.90;;;;;;5093889;28;20447;-13
2022/04/06 09:56:21;;;;;;;36.20;27.55;;;19.90;47.40;;;;;;5094196;28;20111;-12
2022/04/06 09:58:48;;;;;;;34.78;25.90;;;20.10;47.40;;;;;;5094281;28;20040;-11
2022/04/06 10:01:15;;;;;;;40.50;30.58;;;20.40;46.90;;;;;;5093985;28;20483;-12
2022/04/06 10:03:46;;;;;;;37.45;28.77;;;20.60;45.30;;;;;;5094392;28;20021;-12
2022/04/06 10:06:13;;;;;;;43.05;30.75;;;20.70;45.20;;;;;;5094245;28;20024;-11
2022/04/06 10:08:39;;;;;;;39.97;30.45;;;20.60;45.00;;;;;;5094216;28;20055;-12
2022/04/06 10:11:06;;;;;;;37.75;27.42;;;20.70;44.60;;;;;;5093788;28;20392;-12
2022/04/06 10:13:33;;;;;;;34.83;26.65;;;20.90;42.70;;;;;;5094130;28;20144;-13
2022/04/06 10:16:00;;;;;;;37.08;28.50;;;21.00;42.30;;;;;;5094058;28;20035;-11
2022/04/06 10:18:30;;;;;;;35.25;25.75;;;21.30;42.70;;;;;;5093948;28;20114;-13
2022/04/06 10:21:20;;;;;;;34.22;27.10;;;21.40;42.90;;;;;;5093612;28;20388;-12
2022/04/06 10:24:02;;;;;;;35.33;25.42;;;21.40;42.90;;;;;;5093652;28;20063;-12
2022/04/06 10:26:43;;;;;;;37.28;25.98;;;21.40;43.10;;;;;;5091615;28;20036;-11
2022/04/06 10:29:09;;;;;;;30.63;23.88;;;21.40;41.80;;;;;;5093873;28;20043;-12
2022/04/06 10:31:35;;;;;;;36.17;28.48;;;21.30;42.40;;;;;;5093792;28;20020;-12
2022/04/06 10:34:21;;;;;;;33.40;24.52;;;21.10;43.20;;;;;;5093690;28;20028;-12
2022/04/06 10:37:04;;;;;;;34.78;26.05;;;20.80;43.30;;;;;;5093587;28;20036;-11
2022/04/06 10:39:30;;;;;;;28.52;22.25;;;20.70;44.70;;;;;;5093600;28;20039;-12
2022/04/06 10:42:16;;;;;;;41.38;28.63;;;20.80;44.90;;;;;;5093416;28;20028;-12
2022/04/06 10:44:43;;;;;;;39.05;29.15;;;21.10;43.60;;;;;;5093335;28;20020;-12
2022/04/06 10:47:11;;;;;;;41.42;30.63;;;21.40;43.80;;;;;;5093576;28;20028;-13
2022/04/06 10:49:38;;;;;;;38.42;28.80;;;21.30;43.30;;;;;;5093380;28;20384;-11
2022/04/06 10:52:23;;;;;;;40.58;30.60;;;21.50;42.40;;;;;;5093203;28;20539;-12
2022/04/06 10:54:51;;;;;;;38.05;30.35;;;21.40;42.80;;;;;;5093577;28;20043;-11
2022/04/06 10:57:19;;;;;;;41.55;31.23;;;20.80;43.70;;;;;;5093472;28;20024;-12
2022/04/06 11:00:14;;;;;;;34.70;26.45;;;20.60;44.10;;;;;;5094153;28;20118;-11
2022/04/06 11:02:50;;;;;;;31.25;22.85;;;20.60;44.70;;;;;;5100990;28;20024;-12
2022/04/06 11:05:45;;;;;;;25.77;20.38;;;21.00;44.30;;;;;;5100159;28;20024;-12
2022/04/06 11:11:37;;;;;;;32.17;24.80;;;22.30;43.10;;;;;;5096524;28;20035;-12
2022/04/06 11:14:04;;;;;;;37.80;28.92;;;22.90;41.40;;;;;;5100124;28;20028;-12
2022/04/06 11:16:40;;;;;;;33.55;26.75;;;23.40;40.20;;;;;;5099522;28;20058;-12
2022/04/06 11:19:07;;;;;;;35.28;26.55;;;23.50;40.20;;;;;;5099924;28;20024;-12
2022/04/06 11:21:34;;;;;;;29.17;22.98;;;23.50;40.00;;;;;;5099957;28;20027;-12
2022/04/06 11:23:59;;;;;;;37.15;29.35;;;23.40;39.10;;;;;;5099818;28;20024;-12
2022/04/06 11:26:26;;;;;;;38.92;30.38;;;23.40;39.50;;;;;;5099723;28;20042;-11
2022/04/06 11:28:59;;;;;;;36.55;27.88;;;23.20;39.50;;;;;;5099948;28;20032;-12
2022/04/06 11:31:25;;;;;;;37.05;29.88;;;22.90;40.20;;;;;;5099698;28;20136;-11
2022/04/06 11:33:51;;;;;;;29.05;23.17;;;22.80;40.40;;;;;;5099454;28;20082;-13
2022/04/06 11:36:19;;;;;;;37.03;26.00;;;22.70;40.90;;;;;;5099490;28;20062;-12
2022/04/06 11:38:51;;;;;;;30.98;23.58;;;22.80;40.40;;;;;;5099423;28;20493;-12
2022/04/06 11:41:19;;;;;;;28.13;21.02;;;22.90;40.00;;;;;;5099845;28;20028;-12
2022/04/06 11:43:47;;;;;;;24.33;19.38;;;22.90;40.10;;;;;;5099791;28;20028;-12
2022/04/06 11:46:13;;;;;;;38.05;28.83;;;23.00;40.20;;;;;;5099470;28;20026;-12
2022/04/06 11:48:43;;;;;;;36.60;26.30;;;23.10;37.80;;;;;;5099392;28;20020;-11
2022/04/06 11:51:10;;;;;;;37.08;27.80;;;22.80;39.90;;;;;;5099495;28;20396;-11
2022/04/06 11:53:37;;;;;;;30.30;23.55;;;22.50;40.20;;;;;;5099311;28;20080;-11
2022/04/06 11:56:03;;;;;;;26.25;20.95;;;22.10;41.30;;;;;;5099694;28;20036;-11
2022/04/06 11:58:41;;;;;;;30.98;24.63;;;21.90;41.80;;;;;;5099164;28;20012;-12
2022/04/06 12:01:15;;;;;;;28.02;20.20;;;21.60;41.20;;;;;;5099356;28;20435;-12
2022/04/06 12:03:43;;;;;;;28.80;22.05;;;21.40;42.30;;;;;;5099428;28;20030;-12
2022/04/06 12:06:11;;;;;;;33.58;26.08;;;21.20;42.30;;;;;;5099670;28;20035;-12
2022/04/06 12:08:38;;;;;;;35.13;24.25;;;21.10;42.50;;;;;;5099088;28;20016;-11
2022/04/06 12:11:04;;;;;;;36.47;27.38;;;20.90;43.30;;;;;;5098997;28;20123;-13
2022/04/06 12:13:41;;;;;;;30.75;24.15;;;20.80;43.70;;;;;;5094186;28;20107;-11
2022/04/06 12:16:08;;;;;;;36.05;28.02;;;20.60;44.60;;;;;;5096187;28;20048;-11
2022/04/06 12:18:37;;;;;;;30.92;23.67;;;20.30;44.00;;;;;;5095900;28;20115;-12
2022/04/06 12:21:17;;;;;;;29.98;24.45;;;20.20;44.70;;;;;;5096778;28;20020;-11
2022/04/06 12:23:47;;;;;;;35.60;26.73;;;20.20;44.60;;;;;;5096216;28;20051;-11
2022/04/06 12:26:12;;;;;;;32.15;23.52;;;20.30;45.20;;;;;;5095928;28;20024;-11
2022/04/06 12:28:38;;;;;;;36.28;27.83;;;20.30;44.80;;;;;;5095903;28;20017;-11
2022/04/06 12:31:06;;;;;;;30.50;22.48;;;20.30;45.00;;;;;;5096111;28;20039;-11
2022/04/06 12:33:41;;;;;;;26.02;20.70;;;20.20;44.70;;;;;;5095570;28;20531;-12
2022/04/06 12:36:12;;;;;;;33.22;24.08;;;20.20;44.90;;;;;;5095932;28;20039;-12
2022/04/06 12:38:42;;;;;;;35.83;26.75;;;20.30;44.30;;;;;;5095821;28;20031;-12
2022/04/06 12:41:09;;;;;;;31.85;25.40;;;20.40;43.90;;;;;;5095642;28;20480;-13
2022/04/06 12:43:40;;;;;;;30.63;22.10;;;20.20;44.90;;;;;;5095504;28;20552;-11
2022/04/06 12:46:06;;;;;;;31.35;22.88;;;20.10;44.90;;;;;;5095723;28;20483;-11